Time,TemperatureF,DewpointF,PressureIn,WindDirection,WindDirectionDegrees,WindSpeedMPH,WindSpeedGustMPH,Humidity,HourlyPrecipIn,Conditions,Clouds,dailyrainin,SoftwareType,DateUTC
2013-01-04 00:05:00,28.2,22.2,30.21,SSW,211,6.0,6.0,78,0.00,,,0.00,Wunderground v.1.15,2013-01-04 05:05:00,
2013-01-04 00:10:00,28.3,22.3,30.21,SW,229,6.0,11.0,78,0.00,,,0.00,Wunderground v.1.15,2013-01-04 05:10:00,
2013-01-04 00:15:00,28.4,22.4,30.20,SW,225,6.0,11.0,78,0.00,,,0.00,Wunderground v.1.15,2013-01-04 05:15:00,
2013-01-04 00:20:00,28.4,22.4,30.21,SW,232,6.0,6.0,78,0.00,,,0.00,Wunderground v.1.15,2013-01-04 05:20:00,
2013-01-04 00:25:00,28.4,22.7,30.21,WSW,252,5.0,6.0,79,0.00,,,0.00,Wunderground v.1.15,2013-01-04 05:25:00,
2013-01-04 00:30:00,28.3,22.6,30.20,SSW,203,5.0,5.0,79,0.00,,,0.00,Wunderground v.1.15,2013-01-04 05:30:00,
2013-01-04 00:35:00,28.3,22.6,30.20,ENE,78,5.0,5.0,79,0.00,,,0.00,Wunderground v.1.15,2013-01-04 05:35:00,
2013-01-04 00:45:00,28.3,22.3,30.20,WSW,246,5.0,5.0,78,0.00,,,0.00,Wunderground v.1.15,2013-01-04 05:45:00,
2013-01-04 00:50:00,28.2,22.2,30.20,SW,214,4.0,5.0,78,0.00,,,0.00,Wunderground v.1.15,2013-01-04 05:50:00,
2013-01-04 00:55:00,28.3,22.3,30.19,SW,221,4.0,5.0,78,0.00,,,0.00,Wunderground v.1.15,2013-01-04 05:55:00,
2013-01-04 01:00:00,28.2,22.2,30.19,SSW,205,4.0,5.0,78,0.00,,,0.00,Wunderground v.1.15,2013-01-04 06:00:00,
2013-01-04 01:10:00,28.2,22.5,30.19,SW,222,4.0,4.0,79,0.00,,,0.00,Wunderground v.1.15,2013-01-04 06:10:00,
2013-01-04 01:20:00,28.1,22.4,30.19,SE,139,3.0,4.0,79,0.00,,,0.00,Wunderground v.1.15,2013-01-04 06:20:00,
2013-01-04 01:25:00,28.1,22.4,30.19,SW,225,4.0,4.0,79,0.00,,,0.00,Wunderground v.1.15,2013-01-04 06:25:00,
2013-01-04 01:30:00,28.0,22.6,30.18,SW,225,5.0,5.0,80,0.00,,,0.00,Wunderground v.1.15,2013-01-04 06:30:00,
2013-01-04 01:35:00,28.0,22.6,30.18,SW,229,5.0,7.0,80,0.00,,,0.00,Wunderground v.1.15,2013-01-04 06:35:00,
2013-01-04 01:40:00,28.1,22.7,30.18,SSW,210,5.0,8.0,80,0.00,,,0.00,Wunderground v.1.15,2013-01-04 06:40:00,
2013-01-04 01:45:00,28.1,22.7,30.18,South,190,6.0,8.0,80,0.00,,,0.00,Wunderground v.1.15,2013-01-04 06:45:00,
2013-01-04 01:50:00,28.1,22.7,30.18,South,190,6.0,8.0,80,0.00,,,0.00,Wunderground v.1.15,2013-01-04 06:50:00,
2013-01-04 02:00:00,28.1,22.7,30.18,WSW,241,7.0,7.0,80,0.00,,,0.00,Wunderground v.1.15,2013-01-04 07:00:00,
2013-01-04 02:10:00,28.1,22.7,30.19,WSW,241,6.0,6.0,80,0.00,,,0.00,Wunderground v.1.15,2013-01-04 07:10:00,
2013-01-04 02:15:00,28.1,22.7,30.19,SSW,210,6.0,7.0,80,0.00,,,0.00,Wunderground v.1.15,2013-01-04 07:15:00,
2013-01-04 02:20:00,28.1,22.4,30.19,SW,231,6.0,9.0,79,0.00,,,0.00,Wunderground v.1.15,2013-01-04 07:20:00,
2013-01-04 02:25:00,28.1,22.4,30.19,SSW,210,6.0,9.0,79,0.00,,,0.00,Wunderground v.1.15,2013-01-04 07:25:00,
2013-01-04 02:35:00,28.1,22.4,30.19,SSW,193,6.0,6.0,79,0.00,,,0.00,Wunderground v.1.15,2013-01-04 07:35:00,
2013-01-04 02:40:00,28.1,22.1,30.19,SSW,211,6.0,6.0,78,0.00,,,0.00,Wunderground v.1.15,2013-01-04 07:40:00,
2013-01-04 02:45:00,28.1,22.1,30.20,SSW,204,5.0,6.0,78,0.00,,,0.00,Wunderground v.1.15,2013-01-04 07:45:00,
2013-01-04 02:50:00,28.2,22.2,30.20,SW,215,5.0,5.0,78,0.00,,,0.00,Wunderground v.1.15,2013-01-04 07:50:00,
2013-01-04 02:55:00,28.1,22.4,30.20,SSW,204,4.0,5.0,79,0.00,,,0.00,Wunderground v.1.15,2013-01-04 07:55:00,
2013-01-04 03:00:00,28.2,22.5,30.20,SW,224,5.0,5.0,79,0.00,,,0.00,Wunderground v.1.15,2013-01-04 08:00:00,
2013-01-04 03:10:00,28.2,22.5,30.20,SW,217,5.0,6.0,79,0.00,,,0.00,Wunderground v.1.15,2013-01-04 08:10:00,
2013-01-04 03:15:00,28.1,22.4,30.20,SW,229,5.0,7.0,79,0.00,,,0.00,Wunderground v.1.15,2013-01-04 08:15:00,
2013-01-04 07:53:00,26.7,20.5,30.21,WSW,246,6.0,6.0,77,0.00,,,0.00,Wunderground v.1.15,2013-01-04 12:53:00,
2013-01-04 08:00:00,26.7,20.5,30.21,WSW,246,7.0,7.0,77,0.00,,,0.00,Wunderground v.1.15,2013-01-04 13:00:00,
2013-01-04 08:10:00,26.7,20.5,30.21,WSW,245,5.0,5.0,77,0.00,,,0.00,Wunderground v.1.15,2013-01-04 13:10:00,
2013-01-04 08:20:00,26.7,20.5,30.22,NW,309,4.0,5.0,77,0.00,,,0.00,Wunderground v.1.15,2013-01-04 13:20:00,
2013-01-04 08:25:00,26.7,20.5,30.22,SW,217,5.0,12.0,77,0.00,,,0.00,Wunderground v.1.15,2013-01-04 13:25:00,
2013-01-04 08:35:00,26.7,20.5,30.22,NW,312,5.0,6.0,77,0.00,,,0.00,Wunderground v.1.15,2013-01-04 13:35:00,
2013-01-04 08:40:00,26.7,20.5,30.22,SW,222,5.0,9.0,77,0.00,,,0.00,Wunderground v.1.15,2013-01-04 13:40:00,
2013-01-04 08:50:00,26.6,20.1,30.23,West,277,4.0,4.0,76,0.00,,,0.00,Wunderground v.1.15,2013-01-04 13:50:00,
2013-01-04 09:00:00,26.7,20.1,30.23,WSW,237,5.0,5.0,76,0.00,,,0.00,Wunderground v.1.15,2013-01-04 14:00:00,
2013-01-04 09:10:00,26.8,19.9,30.23,WNW,282,5.0,7.0,75,0.00,,,0.00,Wunderground v.1.15,2013-01-04 14:10:00,
2013-01-04 09:15:00,26.9,19.7,30.23,WNW,282,7.0,7.0,74,0.00,,,0.00,Wunderground v.1.15,2013-01-04 14:15:00,
2013-01-04 09:25:00,26.9,19.1,30.23,SW,214,7.0,13.0,72,0.00,,,0.00,Wunderground v.1.15,2013-01-04 14:25:00,
2013-01-04 09:30:00,26.9,19.4,30.23,WNW,301,8.0,8.0,73,0.00,,,0.00,Wunderground v.1.15,2013-01-04 14:30:00,
2013-01-04 09:40:00,26.8,19.3,30.23,SW,229,6.0,17.0,73,0.00,,,0.00,Wunderground v.1.15,2013-01-04 14:40:00,
2013-01-04 09:50:00,26.9,19.4,30.23,SW,217,6.0,9.0,73,0.00,,,0.00,Wunderground v.1.15,2013-01-04 14:50:00,
2013-01-04 09:55:00,26.9,19.4,30.23,SSW,193,7.0,9.0,73,0.00,,,0.00,Wunderground v.1.15,2013-01-04 14:55:00,
2013-01-04 10:00:00,27.1,19.3,30.23,South,187,9.0,13.0,72,0.00,,,0.00,Wunderground v.1.15,2013-01-04 15:00:00,
2013-01-04 10:10:00,27.4,19.6,30.23,SW,219,8.0,13.0,72,0.00,,,0.00,Wunderground v.1.15,2013-01-04 15:10:00,
2013-01-04 10:15:00,27.4,19.2,30.23,WSW,252,8.0,13.0,71,0.00,,,0.00,Wunderground v.1.15,2013-01-04 15:15:00,
2013-01-04 10:20:00,27.6,19.1,30.23,South,191,8.0,8.0,70,0.00,,,0.00,Wunderground v.1.15,2013-01-04 15:20:00,
2013-01-04 10:25:00,27.7,19.5,30.23,WSW,246,7.0,8.0,71,0.00,,,0.00,Wunderground v.1.15,2013-01-04 15:25:00,
2013-01-04 10:35:00,27.7,19.2,30.23,SSW,193,9.0,17.0,70,0.00,,,0.00,Wunderground v.1.15,2013-01-04 15:35:00,
2013-01-04 10:40:00,27.6,19.1,30.23,SSW,206,11.0,11.0,70,0.00,,,0.00,Wunderground v.1.15,2013-01-04 15:40:00,
2013-01-04 10:45:00,27.7,19.2,30.23,SSW,204,11.0,11.0,70,0.00,,,0.00,Wunderground v.1.15,2013-01-04 15:45:00,
2013-01-04 10:50:00,27.8,19.3,30.23,SSW,198,9.0,11.0,70,0.00,,,0.00,Wunderground v.1.15,2013-01-04 15:50:00,
2013-01-04 10:55:00,27.8,19.3,30.23,SSW,207,10.0,10.0,70,0.00,,,0.00,Wunderground v.1.15,2013-01-04 15:55:00,
2013-01-04 11:05:00,27.8,19.3,30.23,SSW,207,12.0,12.0,70,0.00,,,0.00,Wunderground v.1.15,2013-01-04 16:05:00,
2013-01-04 11:10:00,27.9,19.4,30.22,SSW,211,12.0,12.0,70,0.00,,,0.00,Wunderground v.1.15,2013-01-04 16:10:00,
2013-01-04 11:15:00,28.1,19.2,30.22,SW,214,11.0,12.0,69,0.00,,,0.00,Wunderground v.1.15,2013-01-04 16:15:00,
2013-01-04 11:20:00,28.1,19.2,30.22,SW,221,12.0,13.0,69,0.00,,,0.00,Wunderground v.1.15,2013-01-04 16:20:00,
2013-01-04 11:30:00,28.5,19.6,30.22,SSW,201,9.0,9.0,69,0.00,,,0.00,Wunderground v.1.15,2013-01-04 16:30:00,
2013-01-04 11:35:00,28.7,19.8,30.22,SW,214,8.0,12.0,69,0.00,,,0.00,Wunderground v.1.15,2013-01-04 16:35:00,
2013-01-04 11:40:00,28.7,19.8,30.21,SSW,210,10.0,11.0,69,0.00,,,0.00,Wunderground v.1.15,2013-01-04 16:40:00,
2013-01-04 11:45:00,28.5,19.6,30.21,SSW,205,12.0,12.0,69,0.00,,,0.00,Wunderground v.1.15,2013-01-04 16:45:00,
2013-01-04 11:50:00,28.6,19.7,30.20,SSW,211,12.0,14.0,69,0.00,,,0.00,Wunderground v.1.15,2013-01-04 16:50:00,
2013-01-04 11:55:00,28.9,20.0,30.20,WSW,242,11.0,14.0,69,0.00,,,0.00,Wunderground v.1.15,2013-01-04 16:55:00,
2013-01-04 12:00:00,29.0,19.8,30.20,WSW,258,11.0,11.0,68,0.00,,,0.00,Wunderground v.1.15,2013-01-04 17:00:00,
2013-01-04 12:10:00,29.2,19.9,30.19,South,177,11.0,11.0,68,0.00,,,0.00,Wunderground v.1.15,2013-01-04 17:10:00,
2013-01-04 12:15:00,29.0,20.1,30.19,SW,221,12.0,16.0,69,0.00,,,0.00,Wunderground v.1.15,2013-01-04 17:15:00,
2013-01-04 12:20:00,28.8,19.9,30.19,SW,217,13.0,13.0,69,0.00,,,0.00,Wunderground v.1.15,2013-01-04 17:20:00,
2013-01-04 12:30:00,29.0,20.1,30.18,SSW,196,13.0,15.0,69,0.00,,,0.00,Wunderground v.1.15,2013-01-04 17:30:00,
2013-01-04 12:35:00,29.1,20.2,30.18,South,186,13.0,16.0,69,0.00,,,0.00,Wunderground v.1.15,2013-01-04 17:35:00,
2013-01-04 12:40:00,29.1,20.2,30.18,SSW,203,14.0,-999.0,69,0.00,,,0.00,Wunderground v.1.15,2013-01-04 17:40:00,
2013-01-04 12:45:00,29.2,20.3,30.18,SSW,203,10.0,-999.0,69,0.00,,,0.00,Wunderground v.1.15,2013-01-04 17:45:00,
2013-01-04 12:50:00,29.5,20.2,30.18,SW,225,11.0,-999.0,68,0.00,,,0.00,Wunderground v.1.15,2013-01-04 17:50:00,
2013-01-04 12:55:00,29.7,20.4,30.18,SW,225,9.0,-999.0,68,0.00,,,0.00,Wunderground v.1.15,2013-01-04 17:55:00,
2013-01-04 13:00:00,29.9,20.3,30.18,SSW,203,9.0,-999.0,67,0.00,,,0.00,Wunderground v.1.15,2013-01-04 18:00:00,
2013-01-04 13:05:00,30.2,20.2,30.18,SW,225,9.0,-999.0,66,0.00,,,0.00,Wunderground v.1.15,2013-01-04 18:05:00,
2013-01-04 13:10:00,30.3,19.9,30.18,SW,225,9.0,-999.0,65,0.00,,,0.00,Wunderground v.1.15,2013-01-04 18:10:00,
2013-01-04 13:15:00,30.4,20.0,30.18,SSW,203,10.0,-999.0,65,0.00,,,0.00,Wunderground v.1.15,2013-01-04 18:15:00,
2013-01-04 13:20:00,30.5,20.1,30.17,SW,225,12.0,-999.0,65,0.00,,,0.00,Wunderground v.1.15,2013-01-04 18:20:00,
2013-01-04 13:25:00,30.5,20.1,30.17,SSW,203,11.0,-999.0,65,0.00,,,0.00,Wunderground v.1.15,2013-01-04 18:25:00,
2013-01-04 13:30:00,30.6,20.2,30.17,SSW,203,11.0,-999.0,65,0.00,,,0.00,Wunderground v.1.15,2013-01-04 18:30:00,
2013-01-04 13:35:00,30.6,20.2,30.17,SSW,203,12.0,-999.0,65,0.00,,,0.00,Wunderground v.1.15,2013-01-04 18:35:00,
2013-01-04 13:40:00,30.5,20.1,30.17,SSW,203,14.0,-999.0,65,0.00,,,0.00,Wunderground v.1.15,2013-01-04 18:40:00,
2013-01-04 13:45:00,30.6,20.6,30.17,SW,225,10.0,-999.0,66,0.00,,,0.00,Wunderground v.1.15,2013-01-04 18:45:00,
2013-01-04 13:50:00,30.7,20.3,30.17,SW,225,10.0,-999.0,65,0.00,,,0.00,Wunderground v.1.15,2013-01-04 18:50:00,
2013-01-04 13:55:00,30.8,20.4,30.17,SW,225,9.0,-999.0,65,0.00,,,0.00,Wunderground v.1.15,2013-01-04 18:55:00,
2013-01-04 14:00:00,30.9,20.5,30.17,SW,225,10.0,-999.0,65,0.00,,,0.00,Wunderground v.1.15,2013-01-04 19:00:00,
2013-01-04 14:05:00,31.1,20.7,30.17,SW,225,9.0,-999.0,65,0.00,,,0.00,Wunderground v.1.15,2013-01-04 19:05:00,
2013-01-04 14:10:00,31.2,20.8,30.17,SW,225,10.0,-999.0,65,0.00,,,0.00,Wunderground v.1.15,2013-01-04 19:10:00,
2013-01-04 14:15:00,31.3,20.9,30.16,SSW,203,10.0,-999.0,65,0.00,,,0.00,Wunderground v.1.15,2013-01-04 19:15:00,
2013-01-04 14:20:00,31.4,21.0,30.16,SSW,203,10.0,-999.0,65,0.00,,,0.00,Wunderground v.1.15,2013-01-04 19:20:00,
2013-01-04 14:25:00,31.5,20.7,30.16,SSW,203,13.0,-999.0,64,0.00,,,0.00,Wunderground v.1.15,2013-01-04 19:25:00,
2013-01-04 14:30:00,31.5,20.7,30.16,SSW,203,11.0,-999.0,64,0.00,,,0.00,Wunderground v.1.15,2013-01-04 19:30:00,
2013-01-04 14:35:00,31.6,20.8,30.16,SSW,203,12.0,-999.0,64,0.00,,,0.00,Wunderground v.1.15,2013-01-04 19:35:00,
2013-01-04 14:40:00,31.7,20.5,30.15,SSW,203,11.0,-999.0,63,0.00,,,0.00,Wunderground v.1.15,2013-01-04 19:40:00,
2013-01-04 14:45:00,32.0,21.2,30.16,SSW,203,10.0,-999.0,64,0.00,,,0.00,Wunderground v.1.15,2013-01-04 19:45:00,
2013-01-04 14:50:00,32.0,21.2,30.16,SSW,203,11.0,-999.0,64,0.00,,,0.00,Wunderground v.1.15,2013-01-04 19:50:00,
2013-01-04 14:55:00,32.0,21.2,30.15,SSW,203,13.0,-999.0,64,0.00,,,0.00,Wunderground v.1.15,2013-01-04 19:55:00,
2013-01-04 15:00:00,31.9,21.1,30.16,SSW,203,11.0,-999.0,64,0.00,,,0.00,Wunderground v.1.15,2013-01-04 20:00:00,
2013-01-04 15:05:00,31.9,21.1,30.16,SW,225,13.0,-999.0,64,0.00,,,0.00,Wunderground v.1.15,2013-01-04 20:05:00,
2013-01-04 15:10:00,31.8,21.0,30.16,SW,225,12.0,-999.0,64,0.00,,,0.00,Wunderground v.1.15,2013-01-04 20:10:00,
2013-01-04 15:15:00,31.8,21.0,30.16,SSW,203,13.0,-999.0,64,0.00,,,0.00,Wunderground v.1.15,2013-01-04 20:15:00,
2013-01-04 15:20:00,31.8,21.0,30.16,SSW,203,13.0,-999.0,64,0.00,,,0.00,Wunderground v.1.15,2013-01-04 20:20:00,
2013-01-04 15:25:00,31.8,21.4,30.16,SSW,203,10.0,-999.0,65,0.00,,,0.00,Wunderground v.1.15,2013-01-04 20:25:00,
2013-01-04 15:30:00,31.9,21.1,30.16,SSW,203,10.0,-999.0,64,0.00,,,0.00,Wunderground v.1.15,2013-01-04 20:30:00,
2013-01-04 15:35:00,32.0,21.2,30.16,SSW,203,10.0,-999.0,64,0.00,,,0.00,Wunderground v.1.15,2013-01-04 20:35:00,
2013-01-04 15:40:00,32.2,21.4,30.16,SW,225,7.0,-999.0,64,0.00,,,0.00,Wunderground v.1.15,2013-01-04 20:40:00,
2013-01-04 15:45:00,32.3,21.5,30.16,SSW,203,10.0,-999.0,64,0.00,,,0.00,Wunderground v.1.15,2013-01-04 20:45:00,
2013-01-04 15:50:00,32.2,21.4,30.17,SSW,203,10.0,-999.0,64,0.00,,,0.00,Wunderground v.1.15,2013-01-04 20:50:00,
2013-01-04 15:55:00,32.1,21.3,30.17,SW,225,8.0,-999.0,64,0.00,,,0.00,Wunderground v.1.15,2013-01-04 20:55:00,
2013-01-04 16:00:00,32.2,21.4,30.17,SSW,203,8.0,-999.0,64,0.00,,,0.00,Wunderground v.1.15,2013-01-04 21:00:00,
2013-01-04 16:05:00,32.2,21.4,30.16,SW,225,9.0,-999.0,64,0.00,,,0.00,Wunderground v.1.15,2013-01-04 21:05:00,
2013-01-04 16:10:00,32.1,21.3,30.17,SW,225,10.0,-999.0,64,0.00,,,0.00,Wunderground v.1.15,2013-01-04 21:10:00,
2013-01-04 16:15:00,32.0,21.6,30.17,SSW,203,8.0,-999.0,65,0.00,,,0.00,Wunderground v.1.15,2013-01-04 21:15:00,
2013-01-04 16:20:00,31.9,21.5,30.17,SW,225,9.0,-999.0,65,0.00,,,0.00,Wunderground v.1.15,2013-01-04 21:20:00,
2013-01-04 16:25:00,31.9,21.5,30.17,SW,225,8.0,-999.0,65,0.00,,,0.00,Wunderground v.1.15,2013-01-04 21:25:00,
2013-01-04 16:30:00,31.8,21.4,30.17,SSW,203,9.0,-999.0,65,0.00,,,0.00,Wunderground v.1.15,2013-01-04 21:30:00,
2013-01-04 16:35:00,31.6,21.5,30.17,SW,225,6.0,-999.0,66,0.00,,,0.00,Wunderground v.1.15,2013-01-04 21:35:00,
2013-01-04 16:40:00,31.4,21.3,30.18,SW,225,7.0,-999.0,66,0.00,,,0.00,Wunderground v.1.15,2013-01-04 21:40:00,
2013-01-04 16:45:00,30.8,21.1,30.18,SW,225,10.0,-999.0,67,0.00,,,0.00,Wunderground v.1.15,2013-01-04 21:45:00,
2013-01-04 16:50:00,30.5,21.2,30.18,SSW,203,10.0,-999.0,68,0.00,,,0.00,Wunderground v.1.15,2013-01-04 21:50:00,
2013-01-04 16:55:00,30.1,21.2,30.17,SSW,203,11.0,-999.0,69,0.00,,,0.00,Wunderground v.1.15,2013-01-04 21:55:00,
2013-01-04 17:00:00,30.0,21.1,30.17,SSW,203,10.0,-999.0,69,0.00,,,0.00,Wunderground v.1.15,2013-01-04 22:00:00,
2013-01-04 17:05:00,29.7,20.8,30.18,SSW,203,10.0,-999.0,69,0.00,,,0.00,Wunderground v.1.15,2013-01-04 22:05:00,
2013-01-04 17:10:00,29.6,20.7,30.18,SW,225,9.0,-999.0,69,0.00,,,0.00,Wunderground v.1.15,2013-01-04 22:10:00,
2013-01-04 17:15:00,29.6,20.7,30.17,SW,225,9.0,-999.0,69,0.00,,,0.00,Wunderground v.1.15,2013-01-04 22:15:00,
2013-01-04 17:20:00,29.5,20.6,30.18,SW,225,8.0,-999.0,69,0.00,,,0.00,Wunderground v.1.15,2013-01-04 22:20:00,
2013-01-04 17:25:00,29.3,20.7,30.18,SSW,203,9.0,-999.0,70,0.00,,,0.00,Wunderground v.1.15,2013-01-04 22:25:00,
2013-01-04 17:30:00,29.2,20.6,30.18,SSW,203,8.0,-999.0,70,0.00,,,0.00,Wunderground v.1.15,2013-01-04 22:30:00,
2013-01-04 17:35:00,29.1,20.5,30.18,SSW,203,9.0,-999.0,70,0.00,,,0.00,Wunderground v.1.15,2013-01-04 22:35:00,
2013-01-04 17:40:00,29.0,20.4,30.18,SW,225,7.0,-999.0,70,0.00,,,0.00,Wunderground v.1.15,2013-01-04 22:40:00,
2013-01-04 17:45:00,28.9,20.7,30.18,SW,225,9.0,-999.0,71,0.00,,,0.00,Wunderground v.1.15,2013-01-04 22:45:00,
2013-01-04 17:50:00,28.8,20.6,30.18,SW,225,10.0,-999.0,71,0.00,,,0.00,Wunderground v.1.15,2013-01-04 22:50:00,
2013-01-04 17:55:00,28.8,20.6,30.18,SW,225,9.0,-999.0,71,0.00,,,0.00,Wunderground v.1.15,2013-01-04 22:55:00,
2013-01-04 18:00:00,28.6,20.4,30.18,SSW,203,9.0,-999.0,71,0.00,,,0.00,Wunderground v.1.15,2013-01-04 23:00:00,
2013-01-04 18:05:00,28.6,20.7,30.18,SW,225,9.0,-999.0,72,0.00,,,0.00,Wunderground v.1.15,2013-01-04 23:05:00,
2013-01-04 18:10:00,28.6,20.7,30.18,SSW,203,9.0,-999.0,72,0.00,,,0.00,Wunderground v.1.15,2013-01-04 23:10:00,
2013-01-04 18:15:00,28.6,20.4,30.18,SW,225,9.0,-999.0,71,0.00,,,0.00,Wunderground v.1.15,2013-01-04 23:15:00,
2013-01-04 18:20:00,28.6,20.4,30.18,SW,225,8.0,-999.0,71,0.00,,,0.00,Wunderground v.1.15,2013-01-04 23:20:00,
2013-01-04 18:25:00,28.5,20.3,30.18,SSW,203,7.0,-999.0,71,0.00,,,0.00,Wunderground v.1.15,2013-01-04 23:25:00,
2013-01-04 18:30:00,28.4,20.2,30.18,SSW,203,9.0,-999.0,71,0.00,,,0.00,Wunderground v.1.15,2013-01-04 23:30:00,
2013-01-04 18:35:00,28.5,20.3,30.19,SSW,203,7.0,-999.0,71,0.00,,,0.00,Wunderground v.1.15,2013-01-04 23:35:00,
2013-01-04 18:40:00,28.3,20.1,30.19,SSW,203,10.0,-999.0,71,0.00,,,0.00,Wunderground v.1.15,2013-01-04 23:40:00,
2013-01-04 18:45:00,28.3,20.1,30.18,SSW,203,8.0,-999.0,71,0.00,,,0.00,Wunderground v.1.15,2013-01-04 23:45:00,
2013-01-04 18:50:00,28.3,20.1,30.19,SSW,203,9.0,-999.0,71,0.00,,,0.00,Wunderground v.1.15,2013-01-04 23:50:00,
2013-01-04 18:55:00,28.3,20.1,30.19,SSW,203,9.0,-999.0,71,0.00,,,0.00,Wunderground v.1.15,2013-01-04 23:55:00,
2013-01-04 19:00:00,28.2,20.3,30.19,SW,225,7.0,-999.0,72,0.00,,,0.00,Wunderground v.1.15,2013-01-05 00:00:00,
2013-01-04 19:05:00,28.1,20.2,30.19,SW,225,7.0,-999.0,72,0.00,,,0.00,Wunderground v.1.15,2013-01-05 00:05:00,
2013-01-04 19:10:00,28.0,20.1,30.20,SSW,203,8.0,-999.0,72,0.00,,,0.00,Wunderground v.1.15,2013-01-05 00:10:00,
2013-01-04 19:15:00,28.0,20.1,30.20,SW,225,7.0,-999.0,72,0.00,,,0.00,Wunderground v.1.15,2013-01-05 00:15:00,
2013-01-04 19:20:00,28.0,20.1,30.20,SSW,203,7.0,-999.0,72,0.00,,,0.00,Wunderground v.1.15,2013-01-05 00:20:00,
2013-01-04 19:25:00,27.9,20.0,30.20,SSW,203,7.0,-999.0,72,0.00,,,0.00,Wunderground v.1.15,2013-01-05 00:25:00,
2013-01-04 19:30:00,27.7,19.8,30.20,SSW,203,8.0,-999.0,72,0.00,,,0.00,Wunderground v.1.15,2013-01-05 00:30:00,
2013-01-04 19:35:00,27.7,19.8,30.20,SSW,203,8.0,-999.0,72,0.00,,,0.00,Wunderground v.1.15,2013-01-05 00:35:00,
2013-01-04 19:40:00,27.6,19.8,30.20,SSW,203,8.0,-999.0,72,0.00,,,0.00,Wunderground v.1.15,2013-01-05 00:40:00,
2013-01-04 19:45:00,27.5,19.7,30.20,SSW,203,8.0,-999.0,72,0.00,,,0.00,Wunderground v.1.15,2013-01-05 00:45:00,
2013-01-04 19:50:00,27.5,19.7,30.21,SSW,203,7.0,-999.0,72,0.00,,,0.00,Wunderground v.1.15,2013-01-05 00:50:00,
2013-01-04 19:55:00,27.5,19.7,30.21,SSW,203,8.0,-999.0,72,0.00,,,0.00,Wunderground v.1.15,2013-01-05 00:55:00,
2013-01-04 20:00:00,27.4,19.6,30.21,SW,225,7.0,-999.0,72,0.00,,,0.00,Wunderground v.1.15,2013-01-05 01:00:00,
2013-01-04 20:05:00,27.3,19.5,30.21,SSW,203,8.0,-999.0,72,0.00,,,0.00,Wunderground v.1.15,2013-01-05 01:05:00,
2013-01-04 20:10:00,27.2,19.4,30.22,SW,225,7.0,-999.0,72,0.00,,,0.00,Wunderground v.1.15,2013-01-05 01:10:00,
2013-01-04 20:15:00,27.1,19.3,30.22,SSW,203,8.0,-999.0,72,0.00,,,0.00,Wunderground v.1.15,2013-01-05 01:15:00,
2013-01-04 20:20:00,27.0,19.2,30.21,SSW,203,8.0,-999.0,72,0.00,,,0.00,Wunderground v.1.15,2013-01-05 01:20:00,
2013-01-04 20:25:00,26.9,19.4,30.22,SSW,203,6.0,-999.0,73,0.00,,,0.00,Wunderground v.1.15,2013-01-05 01:25:00,
2013-01-04 20:30:00,26.9,19.1,30.23,SW,225,7.0,-999.0,72,0.00,,,0.00,Wunderground v.1.15,2013-01-05 01:30:00,
2013-01-04 20:35:00,26.8,19.3,30.23,SSW,203,6.0,-999.0,73,0.00,,,0.00,Wunderground v.1.15,2013-01-05 01:35:00,
2013-01-04 20:40:00,26.8,19.3,30.22,SSW,203,7.0,-999.0,73,0.00,,,0.00,Wunderground v.1.15,2013-01-05 01:40:00,
2013-01-04 20:45:00,26.8,19.3,30.22,SSW,203,7.0,-999.0,73,0.00,,,0.00,Wunderground v.1.15,2013-01-05 01:45:00,
2013-01-04 20:50:00,26.7,19.2,30.22,SSW,203,7.0,-999.0,73,0.00,,,0.00,Wunderground v.1.15,2013-01-05 01:50:00,
2013-01-04 20:55:00,26.6,19.1,30.22,SSW,203,6.0,-999.0,73,0.00,,,0.00,Wunderground v.1.15,2013-01-05 01:55:00,
2013-01-04 21:07:00,26.4,19.2,30.22,SSW,203,7.0,-999.0,74,0.00,,,0.00,Wunderground v.1.15,2013-01-05 02:07:00,
2013-01-04 21:15:00,26.1,18.9,30.22,South,186,6.0,6.0,74,0.00,,,0.00,Wunderground v.1.15,2013-01-05 02:15:00,
2013-01-04 21:20:00,26.0,18.8,30.22,South,180,7.0,7.0,74,0.00,,,0.00,Wunderground v.1.15,2013-01-05 02:20:00,
2013-01-04 21:25:00,25.9,18.7,30.22,SSW,193,7.0,7.0,74,0.00,,,0.00,Wunderground v.1.15,2013-01-05 02:25:00,
2013-01-04 21:35:00,25.9,18.7,30.23,SSW,198,6.0,7.0,74,0.00,,,0.00,Wunderground v.1.15,2013-01-05 02:35:00,
2013-01-04 21:40:00,25.8,18.7,30.23,SSW,211,6.0,6.0,74,0.00,,,0.00,Wunderground v.1.15,2013-01-05 02:40:00,
2013-01-04 21:45:00,25.7,18.6,30.23,SW,222,5.0,7.0,74,0.00,,,0.00,Wunderground v.1.15,2013-01-05 02:45:00,
2013-01-04 21:50:00,25.6,18.5,30.23,SSW,200,5.0,5.0,74,0.00,,,0.00,Wunderground v.1.15,2013-01-05 02:50:00,
2013-01-04 21:55:00,25.3,18.2,30.23,SW,222,5.0,5.0,74,0.00,,,0.00,Wunderground v.1.15,2013-01-05 02:55:00,
2013-01-04 22:00:00,25.2,18.4,30.24,SW,222,5.0,5.0,75,0.00,,,0.00,Wunderground v.1.15,2013-01-05 03:00:00,
2013-01-04 22:10:00,24.8,18.0,30.24,SSW,200,5.0,5.0,75,0.00,,,0.00,Wunderground v.1.15,2013-01-05 03:10:00,
2013-01-04 22:15:00,24.5,17.7,30.24,SW,225,5.0,5.0,75,0.00,,,0.00,Wunderground v.1.15,2013-01-05 03:15:00,
2013-01-04 22:20:00,24.6,18.1,30.24,SW,219,6.0,6.0,76,0.00,,,0.00,Wunderground v.1.15,2013-01-05 03:20:00,
2013-01-04 22:25:00,24.7,18.2,30.24,SW,229,6.0,6.0,76,0.00,,,0.00,Wunderground v.1.15,2013-01-05 03:25:00,
2013-01-04 22:30:00,24.7,18.2,30.24,South,187,5.0,5.0,76,0.00,,,0.00,Wunderground v.1.15,2013-01-05 03:30:00,
2013-01-04 22:35:00,24.8,18.3,30.24,SSW,207,5.0,5.0,76,0.00,,,0.00,Wunderground v.1.15,2013-01-05 03:35:00,
2013-01-04 22:45:00,24.8,18.3,30.24,WSW,242,6.0,7.0,76,0.00,,,0.00,Wunderground v.1.15,2013-01-05 03:45:00,
2013-01-04 22:50:00,24.8,18.3,30.24,SE,142,6.0,6.0,76,0.00,,,0.00,Wunderground v.1.15,2013-01-05 03:50:00,
2013-01-04 22:55:00,24.7,17.9,30.24,SSW,207,5.0,6.0,75,0.00,,,0.00,Wunderground v.1.15,2013-01-05 03:55:00,
2013-01-04 23:00:00,24.6,18.1,30.25,SSW,203,6.0,6.0,76,0.00,,,0.00,Wunderground v.1.15,2013-01-05 04:00:00,
2013-01-04 23:10:00,24.5,18.0,30.25,SSW,200,6.0,8.0,76,0.00,,,0.00,Wunderground v.1.15,2013-01-05 04:10:00,
2013-01-04 23:20:00,24.4,17.9,30.25,SSW,200,6.0,6.0,76,0.00,,,0.00,Wunderground v.1.15,2013-01-05 04:20:00,
2013-01-04 23:25:00,24.4,17.9,30.25,South,174,7.0,7.0,76,0.00,,,0.00,Wunderground v.1.15,2013-01-05 04:25:00,
2013-01-04 23:30:00,24.4,17.9,30.25,SSW,207,7.0,7.0,76,0.00,,,0.00,Wunderground v.1.15,2013-01-05 04:30:00,
2013-01-04 23:35:00,24.1,17.6,30.25,SSW,207,6.0,7.0,76,0.00,,,0.00,Wunderground v.1.15,2013-01-05 04:35:00,
2013-01-04 23:40:00,23.6,17.4,30.25,South,183,5.0,6.0,77,0.00,,,0.00,Wunderground v.1.15,2013-01-05 04:40:00,
2013-01-04 23:45:00,23.4,16.9,30.25,SSW,203,5.0,7.0,76,0.00,,,0.00,Wunderground v.1.15,2013-01-05 04:45:00,
2013-01-04 23:50:00,23.6,17.7,30.25,SSE,148,5.0,5.0,78,0.00,,,0.00,Wunderground v.1.15,2013-01-05 04:50:00,